Terminal Aerodrome Forecast
Issued by NWS Louisville, KY

Home | Current Version | Previous Version | Text Only | Print | Product List | Glossary On
Versions: 1 2 3 4 5 6 7 8 9 10 11 12 13 14 15
000
FTUS43 KLMK 290900 AAA
TAFBWG
TAF AMD
KBWG 290910Z 2909/3006 20012G20KT P6SM VCSH BKN120 WS018/21050KT
     FM291400 20014G24KT P6SM BKN050
     FM292000 27011G18KT P6SM BKN035
     FM300100 31008KT P6SM BKN025=

USA.gov is the U.S. government's official web portal to all federal, state and local government web resources and services.